createdAt,value
2018-03-02T00:00:17.647Z,33.73
2018-03-02T00:02:44.859Z,40.83
2018-03-02T00:05:11.301Z,36.97
2018-03-02T00:07:37.763Z,38.30
2018-03-02T00:10:05.104Z,35.47
2018-03-02T00:12:31.522Z,32.47
2018-03-02T00:14:57.970Z,35.10
2018-03-02T00:17:24.465Z,41.73
2018-03-02T00:19:51.020Z,35.43
2018-03-02T00:22:17.443Z,33.50
2018-03-02T00:24:43.863Z,38.87
2018-03-02T00:27:10.324Z,39.67
2018-03-02T00:29:36.730Z,37.30
2018-03-02T00:32:03.154Z,33.30
2018-03-02T00:34:29.640Z,32.20
2018-03-02T00:36:56.180Z,29.93
2018-03-02T00:39:23.376Z,38.20
2018-03-02T00:41:49.812Z,31.97
2018-03-02T00:44:16.294Z,28.30
2018-03-02T00:46:42.711Z,34.47
2018-03-02T00:49:09.105Z,37.90
2018-03-02T00:51:35.496Z,34.70
2018-03-02T00:54:01.925Z,33.60
2018-03-02T00:56:28.354Z,38.60
2018-03-02T00:58:54.862Z,34.83
2018-03-02T01:01:21.340Z,32.13
2018-03-02T01:03:47.856Z,37.20
2018-03-02T01:06:14.497Z,32.00
2018-03-02T01:08:41.747Z,36.03
2018-03-02T01:11:08.281Z,36.40
2018-03-02T01:13:34.687Z,30.00
2018-03-02T01:16:01.108Z,33.40
2018-03-02T01:18:27.606Z,32.80
2018-03-02T01:20:54.142Z,46.63
2018-03-02T01:23:20.652Z,32.97
2018-03-02T01:25:47.089Z,32.90
2018-03-02T01:28:13.571Z,35.50
2018-03-02T01:30:40.135Z,27.20
2018-03-02T01:33:06.523Z,42.10
2018-03-02T01:35:32.926Z,48.00
2018-03-02T01:37:59.354Z,40.00
2018-03-02T01:40:25.766Z,33.40
2018-03-02T01:42:52.160Z,36.53
2018-03-02T01:45:18.597Z,36.37
2018-03-02T01:47:45.105Z,35.07
2018-03-02T01:50:12.338Z,35.13
2018-03-02T01:52:39.512Z,28.50
2018-03-02T01:55:05.949Z,37.57
2018-03-02T01:57:33.273Z,31.37
2018-03-02T01:59:59.878Z,30.53
2018-03-02T02:02:26.302Z,36.43
2018-03-02T02:04:52.778Z,36.03
2018-03-02T02:07:19.365Z,37.07
2018-03-02T02:09:45.821Z,43.63
2018-03-02T02:12:12.263Z,28.90
2018-03-02T02:14:39.499Z,35.83
2018-03-02T02:17:05.964Z,36.37
2018-03-02T02:19:32.398Z,33.73
2018-03-02T02:21:59.134Z,33.17
2018-03-02T02:24:26.307Z,49.00
2018-03-02T02:26:53.444Z,33.10
2018-03-02T02:29:19.868Z,36.00
2018-03-02T02:31:46.319Z,37.53
2018-03-02T02:34:13.516Z,40.57
2018-03-02T02:36:39.972Z,31.93
2018-03-02T02:39:06.443Z,32.60
2018-03-02T02:41:32.845Z,31.17
2018-03-02T02:43:59.247Z,34.37
2018-03-02T02:46:25.707Z,34.33
2018-03-02T02:48:52.132Z,30.17
2018-03-02T02:51:18.661Z,38.10
2018-03-02T02:53:45.199Z,31.10
2018-03-02T02:56:11.654Z,29.40
2018-03-02T02:58:38.050Z,37.63
2018-03-02T03:01:04.596Z,35.73
2018-03-02T03:03:31.332Z,31.30
2018-03-02T03:05:57.823Z,40.67
2018-03-02T03:08:24.244Z,37.13
2018-03-02T03:10:51.367Z,32.10
2018-03-02T03:13:17.843Z,33.20
2018-03-02T03:15:44.269Z,32.87
2018-03-02T03:18:10.662Z,33.97
2018-03-02T03:20:37.160Z,33.07
2018-03-02T03:23:03.849Z,39.27
2018-03-02T03:25:30.274Z,36.40
2018-03-02T03:27:56.793Z,29.73
2018-03-02T03:30:23.250Z,32.43
2018-03-02T03:32:49.613Z,35.50
2018-03-02T03:35:16.034Z,26.13
2018-03-02T03:37:43.264Z,35.77
2018-03-02T03:40:09.654Z,31.80
2018-03-02T03:42:36.165Z,32.27
2018-03-02T03:45:02.577Z,33.97
2018-03-02T03:47:29.096Z,32.97
2018-03-02T03:49:55.559Z,39.97
2018-03-02T03:52:21.960Z,37.20
2018-03-02T03:54:48.398Z,38.67
2018-03-02T03:57:14.826Z,40.60
2018-03-02T03:59:42.018Z,30.50
2018-03-02T04:02:09.118Z,41.87
2018-03-02T04:04:35.598Z,36.00
2018-03-02T04:07:02.046Z,36.37
2018-03-02T04:09:28.495Z,38.23
2018-03-02T04:11:54.943Z,36.43
2018-03-02T04:14:21.601Z,24.57
2018-03-02T04:16:48.035Z,37.10
2018-03-02T04:19:14.522Z,35.57
2018-03-02T04:21:40.886Z,32.17
2018-03-02T04:24:07.327Z,34.10
2018-03-02T04:26:33.741Z,36.20
2018-03-02T04:29:00.301Z,34.83
2018-03-02T04:31:26.817Z,43.03
2018-03-02T04:33:54.733Z,37.10
2018-03-02T04:36:21.939Z,39.93
2018-03-02T04:38:48.491Z,42.40
2018-03-02T04:41:14.916Z,38.40
2018-03-02T04:43:41.297Z,37.40
2018-03-02T04:46:07.679Z,35.77
2018-03-02T04:48:34.228Z,40.03
2018-03-02T04:51:00.608Z,32.97
2018-03-02T04:53:27.092Z,34.73
2018-03-02T04:55:53.637Z,42.33
2018-03-02T04:58:20.083Z,33.57
2018-03-02T05:00:46.563Z,35.97
2018-03-02T05:03:12.940Z,32.30
2018-03-02T05:05:39.288Z,40.30
2018-03-02T05:08:05.720Z,41.40
2018-03-02T05:10:32.217Z,32.87
2018-03-02T05:12:58.736Z,35.30
2018-03-02T05:15:25.260Z,37.77
2018-03-02T05:17:51.726Z,35.50
2018-03-02T05:20:18.158Z,43.90
2018-03-02T05:22:44.595Z,31.97
2018-03-02T05:25:11.234Z,41.00
2018-03-02T05:27:37.870Z,35.87
2018-03-02T05:30:05.063Z,33.53
2018-03-02T05:32:31.731Z,30.20
2018-03-02T05:34:58.138Z,36.60
2018-03-02T05:37:24.514Z,31.67
2018-03-02T05:39:50.957Z,33.17
2018-03-02T05:42:18.204Z,31.20
2018-03-02T05:44:44.651Z,35.67
2018-03-02T05:47:11.813Z,39.87
2018-03-02T05:49:39.065Z,36.23
2018-03-02T05:52:05.536Z,34.33
2018-03-02T05:54:32.110Z,34.97
2018-03-02T05:56:58.485Z,37.70
2018-03-02T05:59:24.947Z,37.90
2018-03-02T06:01:51.425Z,34.80
2018-03-02T06:04:17.918Z,30.07
2018-03-02T06:06:44.306Z,34.83
2018-03-02T06:09:11.528Z,35.73
2018-03-02T06:11:37.980Z,40.77
2018-03-02T06:14:05.094Z,36.73
2018-03-02T06:16:31.641Z,40.90
2018-03-02T06:18:58.081Z,45.17
2018-03-02T06:21:25.213Z,38.00
2018-03-02T06:23:51.626Z,38.93
2018-03-02T06:26:18.011Z,42.57
2018-03-02T06:28:45.203Z,36.80
2018-03-02T06:31:11.603Z,33.57
2018-03-02T06:33:38.045Z,34.73
2018-03-02T06:36:05.138Z,31.50
2018-03-02T06:38:31.532Z,34.63
2018-03-02T06:40:58.021Z,30.20
2018-03-02T06:43:24.451Z,40.60
2018-03-02T06:45:50.883Z,34.33
2018-03-02T06:48:17.307Z,31.80
2018-03-02T06:50:43.665Z,33.40
2018-03-02T06:53:10.903Z,39.30
2018-03-02T06:55:38.111Z,33.00
2018-03-02T06:58:04.574Z,36.40
2018-03-02T07:00:31.024Z,37.23
2018-03-02T07:02:57.467Z,29.30
2018-03-02T07:05:23.884Z,43.53
2018-03-02T07:07:51.087Z,38.53
2018-03-02T07:10:17.579Z,31.00
2018-03-02T07:12:44.213Z,37.60
2018-03-02T07:15:10.677Z,34.80
2018-03-02T07:17:37.130Z,32.23
2018-03-02T07:20:03.611Z,33.97
2018-03-02T07:22:30.022Z,38.30
2018-03-02T07:24:56.413Z,36.80
2018-03-02T07:27:29.840Z,35.43
2018-03-02T07:29:56.264Z,37.43
2018-03-02T07:32:22.641Z,31.50
2018-03-02T07:34:49.170Z,38.67
2018-03-02T07:37:16.407Z,30.87
2018-03-02T07:39:42.825Z,37.03
2018-03-02T07:42:09.316Z,42.83
2018-03-02T07:44:35.745Z,36.83
2018-03-02T07:47:02.912Z,38.50
2018-03-02T07:49:29.312Z,39.87
2018-03-02T07:52:03.069Z,35.77
2018-03-02T07:54:29.494Z,42.90
2018-03-02T07:56:55.940Z,32.73
2018-03-02T07:59:22.325Z,41.03
2018-03-02T08:01:48.742Z,38.37
2018-03-02T08:04:15.200Z,34.73
2018-03-02T08:06:41.719Z,36.83
2018-03-02T08:09:08.194Z,40.57
2018-03-02T08:11:34.590Z,36.17
2018-03-02T08:14:01.706Z,39.00
2018-03-02T08:16:28.179Z,46.00
2018-03-02T08:18:54.653Z,40.50
2018-03-02T08:21:21.122Z,36.70
2018-03-02T08:23:47.608Z,40.13
2018-03-02T08:26:14.063Z,41.30
2018-03-02T08:28:40.446Z,38.83
2018-03-02T08:31:07.584Z,39.33
2018-03-02T08:33:34.738Z,41.77
2018-03-02T08:36:01.089Z,42.87
2018-03-02T08:38:28.227Z,39.03
2018-03-02T08:40:54.637Z,40.90
2018-03-02T08:43:20.994Z,33.43
2018-03-02T08:45:48.223Z,44.07
2018-03-02T08:48:15.352Z,50.30
2018-03-02T08:50:42.062Z,44.30
2018-03-02T08:53:08.641Z,48.37
2018-03-02T08:55:35.080Z,45.97
2018-03-02T08:58:02.280Z,46.47
2018-03-02T09:00:28.708Z,45.87
2018-03-02T09:02:55.166Z,47.83
2018-03-02T09:05:21.636Z,49.00
2018-03-02T09:07:48.161Z,52.07
2018-03-02T09:10:15.384Z,38.70
2018-03-02T09:12:41.845Z,45.47
2018-03-02T09:15:08.331Z,47.87
2018-03-02T09:17:34.760Z,44.93
2018-03-02T09:20:01.229Z,51.83
2018-03-02T09:22:27.661Z,45.20
2018-03-02T09:24:54.112Z,49.80
2018-03-02T09:27:20.497Z,38.27
2018-03-02T09:29:46.898Z,39.43
2018-03-02T09:32:14.205Z,44.43
2018-03-02T09:34:40.605Z,40.37
2018-03-02T09:37:07.094Z,41.60
2018-03-02T09:39:33.473Z,42.17
2018-03-02T09:41:59.922Z,44.77
2018-03-02T09:44:26.452Z,40.40
2018-03-02T09:46:52.834Z,38.37
2018-03-02T09:49:19.273Z,42.13
2018-03-02T09:51:46.430Z,46.07
2018-03-02T09:54:13.545Z,38.73
2018-03-02T09:56:39.929Z,38.90
2018-03-02T09:59:06.415Z,39.57
2018-03-02T10:01:32.818Z,35.40
2018-03-02T10:03:59.202Z,37.73
2018-03-02T10:06:25.598Z,43.03
2018-03-02T10:08:52.132Z,45.70
2018-03-02T10:11:18.593Z,51.60
2018-03-02T10:13:45.085Z,45.90
2018-03-02T10:16:12.283Z,46.33
2018-03-02T10:18:38.724Z,43.27
2018-03-02T10:21:05.943Z,49.10
2018-03-02T10:23:32.337Z,43.17
2018-03-02T10:25:58.734Z,42.37
2018-03-02T10:28:25.126Z,43.07
2018-03-02T10:30:51.594Z,45.50
2018-03-02T10:33:17.976Z,41.87
2018-03-02T10:35:44.594Z,41.63
2018-03-02T10:38:11.094Z,36.67
2018-03-02T10:40:37.629Z,46.77
2018-03-02T10:43:04.805Z,43.43
2018-03-02T10:45:31.938Z,39.70
2018-03-02T10:47:58.351Z,41.70
2018-03-02T10:50:24.885Z,49.03
2018-03-02T10:52:51.441Z,47.30
2018-03-02T10:55:18.570Z,45.10
2018-03-02T10:57:45.028Z,40.77
2018-03-02T11:00:12.234Z,44.37
2018-03-02T11:02:44.871Z,48.00
2018-03-02T11:05:11.363Z,50.00
2018-03-02T11:07:37.793Z,44.07
2018-03-02T11:10:04.244Z,45.33
2018-03-02T11:12:30.678Z,45.73
2018-03-02T11:14:57.124Z,47.20
2018-03-02T11:17:24.265Z,38.87
2018-03-02T11:19:51.442Z,48.03
2018-03-02T11:22:17.945Z,43.90
2018-03-02T11:24:44.371Z,49.90
2018-03-02T11:27:10.836Z,51.93
2018-03-02T11:29:37.417Z,42.07
2018-03-02T11:32:03.924Z,42.53
2018-03-02T11:34:30.389Z,42.17
2018-03-02T11:36:56.790Z,45.97
2018-03-02T11:39:23.196Z,39.53
2018-03-02T11:41:49.713Z,37.53
2018-03-02T11:44:16.249Z,45.40
2018-03-02T11:46:43.415Z,41.87
2018-03-02T11:49:09.801Z,44.80
2018-03-02T11:51:36.281Z,42.80
2018-03-02T11:54:02.800Z,34.47
2018-03-02T11:56:29.293Z,43.87
2018-03-02T11:58:55.794Z,40.30
2018-03-02T12:01:23.122Z,37.57
2018-03-02T12:03:49.567Z,40.57
2018-03-02T12:06:16.793Z,45.33
2018-03-02T12:08:43.261Z,37.93
2018-03-02T12:11:10.480Z,46.73
2018-03-02T12:13:36.936Z,48.53
2018-03-02T12:16:03.420Z,46.03
2018-03-02T12:18:29.886Z,44.33
2018-03-02T12:20:56.435Z,48.47
2018-03-02T12:23:22.954Z,45.43
2018-03-02T12:25:49.361Z,41.33
2018-03-02T12:28:15.755Z,53.40
2018-03-02T12:30:42.276Z,54.90
2018-03-02T12:33:09.491Z,47.00
2018-03-02T12:35:35.886Z,50.30
2018-03-02T12:38:02.352Z,47.23
2018-03-02T12:40:28.815Z,51.70
2018-03-02T12:42:55.210Z,53.70
2018-03-02T12:45:21.701Z,41.07
2018-03-02T12:47:48.218Z,44.30
2018-03-02T12:50:15.389Z,44.83
2018-03-02T12:52:49.572Z,47.43
2018-03-02T12:55:16.781Z,48.70
2018-03-02T12:57:43.167Z,52.60
2018-03-02T13:00:09.698Z,43.27
2018-03-02T13:02:36.211Z,47.87
2018-03-02T13:05:02.666Z,49.17
2018-03-02T13:07:29.095Z,47.57
2018-03-02T13:09:55.638Z,47.07
2018-03-02T13:12:22.885Z,47.07
2018-03-02T13:14:49.357Z,119.63
2018-03-02T13:17:15.751Z,56.80
2018-03-02T13:19:42.208Z,53.40
2018-03-02T13:22:21.100Z,41.03
2018-03-02T13:24:47.541Z,47.40
2018-03-02T13:27:26.436Z,49.47
2018-03-02T13:29:52.985Z,49.77
2018-03-02T13:32:19.413Z,52.63
2018-03-02T13:35:10.757Z,53.40
2018-03-02T13:37:37.910Z,48.67
2018-03-02T13:40:16.728Z,50.60
2018-03-02T13:42:43.264Z,46.70
2018-03-02T13:45:09.778Z,51.67
2018-03-02T13:50:39.423Z,48.77
2018-03-02T13:53:06.655Z,48.03
2018-03-02T13:55:33.130Z,48.80
2018-03-02T13:58:01.584Z,54.70
2018-03-02T14:00:28.035Z,55.30
2018-03-02T14:03:07.553Z,52.00
2018-03-02T14:05:34.182Z,50.40
2018-03-02T14:08:01.456Z,54.90
2018-03-02T14:10:27.963Z,50.67
2018-03-02T14:12:54.483Z,48.17
2018-03-02T14:15:20.929Z,47.03
2018-03-02T14:17:47.303Z,50.83
2018-03-02T14:20:14.745Z,45.40
2018-03-02T14:22:41.139Z,47.07
2018-03-02T14:25:07.620Z,48.37
2018-03-02T14:27:34.967Z,48.30
2018-03-02T14:30:01.476Z,57.43
2018-03-02T14:32:29.382Z,55.90
2018-03-02T14:34:55.826Z,43.57
2018-03-02T14:37:23.052Z,55.17
2018-03-02T14:39:49.544Z,54.63
2018-03-02T14:42:15.978Z,43.37
2018-03-02T14:44:42.385Z,49.60
2018-03-02T14:47:08.793Z,45.30
2018-03-02T14:49:35.254Z,51.00
2018-03-02T14:52:01.658Z,52.03
2018-03-02T14:54:28.875Z,48.67
2018-03-02T14:56:55.446Z,53.50
2018-03-02T14:59:21.870Z,47.23
2018-03-02T15:01:48.406Z,52.87
2018-03-02T15:04:14.898Z,69.70
2018-03-02T15:06:41.293Z,57.77
2018-03-02T15:09:08.626Z,57.83
2018-03-02T15:11:35.245Z,70.97
2018-03-02T15:14:01.719Z,48.10
2018-03-02T15:16:28.948Z,47.87
2018-03-02T15:18:55.417Z,49.60
2018-03-02T15:21:21.872Z,47.40
2018-03-02T15:23:49.780Z,46.00
2018-03-02T15:26:16.188Z,49.17
2018-03-02T15:28:42.648Z,48.67
2018-03-02T15:31:09.184Z,45.00
2018-03-02T15:33:35.690Z,59.10
2018-03-02T15:36:02.188Z,47.00
2018-03-02T15:38:28.767Z,42.77
2018-03-02T15:40:55.429Z,48.43
2018-03-02T15:43:21.963Z,47.23
2018-03-02T15:45:49.275Z,49.63
2018-03-02T15:48:15.747Z,48.80
2018-03-02T15:50:42.288Z,45.13
2018-03-02T15:53:08.694Z,44.53
2018-03-02T15:55:35.254Z,48.60
2018-03-02T15:58:01.772Z,52.57
2018-03-02T16:00:28.219Z,46.70
2018-03-02T16:02:54.633Z,50.87
2018-03-02T16:05:21.189Z,47.07
2018-03-02T16:07:47.551Z,40.97
2018-03-02T16:10:14.712Z,45.73
2018-03-02T16:12:41.188Z,43.77
2018-03-02T16:15:07.612Z,48.10
2018-03-02T16:17:34.026Z,50.43
2018-03-02T16:20:00.512Z,47.17
2018-03-02T16:22:28.404Z,50.23
2018-03-02T16:24:54.905Z,48.50
2018-03-02T16:27:21.409Z,45.03
2018-03-02T16:29:47.919Z,46.40
2018-03-02T16:32:14.529Z,46.20
2018-03-02T16:34:41.947Z,46.40
2018-03-02T16:37:08.394Z,50.27
2018-03-02T16:39:34.821Z,50.50
2018-03-02T16:42:02.086Z,46.87
2018-03-02T16:44:28.560Z,49.23
2018-03-02T16:46:55.084Z,49.67
2018-03-02T16:49:21.480Z,39.57
2018-03-02T16:51:48.790Z,50.07
2018-03-02T16:54:15.186Z,55.50
2018-03-02T16:56:41.709Z,46.10
2018-03-02T16:59:08.244Z,46.00
2018-03-02T17:01:34.982Z,50.57
2018-03-02T17:04:02.278Z,57.60
2018-03-02T17:06:28.679Z,48.23
2018-03-02T17:08:55.206Z,48.10
2018-03-02T17:11:21.690Z,50.87
2018-03-02T17:13:48.099Z,52.00
2018-03-02T17:16:15.416Z,49.50
2018-03-02T17:18:41.869Z,52.77
2018-03-02T17:21:09.051Z,49.20
2018-03-02T17:23:35.645Z,45.33
2018-03-02T17:26:02.181Z,47.27
2018-03-02T17:28:29.644Z,51.70
2018-03-02T17:30:56.376Z,51.03
2018-03-02T17:33:22.913Z,58.33
2018-03-02T17:35:49.346Z,51.80
2018-03-02T17:38:15.770Z,48.63
2018-03-02T17:40:42.190Z,52.80
2018-03-02T17:43:08.595Z,54.13
2018-03-02T17:45:35.183Z,59.90
2018-03-02T17:48:02.655Z,47.00
2018-03-02T17:50:29.274Z,50.60
2018-03-02T17:52:55.813Z,51.70
2018-03-02T17:55:23.003Z,50.90
2018-03-02T17:57:49.497Z,45.07
2018-03-02T18:00:15.999Z,46.73
2018-03-02T18:02:42.435Z,49.93
2018-03-02T18:05:08.962Z,54.77
2018-03-02T18:07:35.520Z,47.53
2018-03-02T18:10:02.018Z,52.23
2018-03-02T18:12:28.502Z,52.67
2018-03-02T18:14:55.855Z,50.33
2018-03-02T18:17:22.295Z,57.57
2018-03-02T18:19:49.541Z,58.40
2018-03-02T18:22:16.746Z,52.93
2018-03-02T18:24:43.275Z,55.63
2018-03-02T18:27:09.708Z,55.70
2018-03-02T18:29:36.136Z,49.10
2018-03-02T18:32:02.612Z,48.77
2018-03-02T18:34:29.022Z,49.57
2018-03-02T18:36:55.495Z,53.43
2018-03-02T18:39:22.016Z,50.70
2018-03-02T18:41:48.563Z,53.83
2018-03-02T18:44:15.015Z,51.87
2018-03-02T18:46:42.149Z,57.33
2018-03-02T18:49:08.594Z,51.57
2018-03-02T18:51:35.040Z,59.38
2018-03-02T18:54:01.500Z,49.70
2018-03-02T18:56:28.190Z,50.47
2018-03-02T18:58:54.732Z,55.60
2018-03-02T19:01:21.262Z,57.03
2018-03-02T19:03:47.995Z,52.80
2018-03-02T19:06:14.577Z,49.57
2018-03-02T19:08:41.143Z,50.67
2018-03-02T19:11:07.583Z,50.77
2018-03-02T19:13:34.062Z,55.27
2018-03-02T19:16:00.472Z,51.90
2018-03-02T19:18:26.908Z,50.73
2018-03-02T19:20:53.308Z,63.10
2018-03-02T19:23:19.872Z,52.93
2018-03-02T19:25:47.097Z,55.60
2018-03-02T19:28:13.835Z,48.63
2018-03-02T19:30:40.397Z,52.13
2018-03-02T19:33:06.943Z,53.80
2018-03-02T19:35:33.420Z,50.03
2018-03-02T19:38:00.105Z,50.47
2018-03-02T19:40:27.561Z,48.13
2018-03-02T19:42:55.120Z,60.60
2018-03-02T19:45:22.582Z,52.23
2018-03-02T19:47:49.835Z,47.47
2018-03-02T19:50:16.360Z,57.17
2018-03-02T19:52:42.831Z,58.20
2018-03-02T19:55:09.413Z,55.67
2018-03-02T19:57:35.942Z,55.80
2018-03-02T20:00:02.424Z,56.43
2018-03-02T20:02:30.177Z,56.03
2018-03-02T20:04:57.557Z,52.63
2018-03-02T20:07:24.133Z,44.77
2018-03-02T20:09:50.619Z,54.53
2018-03-02T20:12:17.130Z,51.87
2018-03-02T20:14:43.615Z,61.87
2018-03-02T20:17:10.068Z,47.63
2018-03-02T20:19:36.638Z,64.03
2018-03-02T20:22:03.886Z,50.93
2018-03-02T20:24:30.402Z,51.87
2018-03-02T20:26:56.875Z,51.53
2018-03-02T20:29:24.031Z,49.10
2018-03-02T20:31:51.239Z,52.27
2018-03-02T20:34:17.789Z,49.27
2018-03-02T20:36:44.429Z,46.47
2018-03-02T20:39:11.624Z,56.70
2018-03-02T20:41:38.187Z,63.47
2018-03-02T20:44:04.665Z,54.73
2018-03-02T20:46:31.988Z,54.53
2018-03-02T20:49:00.175Z,55.80
2018-03-02T20:51:27.436Z,61.37
2018-03-02T20:53:54.070Z,57.73
2018-03-02T20:56:21.512Z,54.40
2018-03-02T20:58:48.028Z,63.10
2018-03-02T21:01:14.492Z,52.53
2018-03-02T21:03:40.903Z,55.77
2018-03-02T21:06:08.103Z,57.50
2018-03-02T21:08:35.241Z,53.63
2018-03-02T21:11:01.731Z,55.00
2018-03-02T21:13:28.247Z,57.93
2018-03-02T21:15:54.681Z,63.00
2018-03-02T21:18:21.154Z,64.57
2018-03-02T21:20:47.696Z,64.93
2018-03-02T21:23:14.205Z,65.67
2018-03-02T21:25:40.662Z,57.20
2018-03-02T21:28:07.304Z,74.70
2018-03-02T21:30:33.743Z,61.07
2018-03-02T21:33:00.193Z,64.33
2018-03-02T21:35:26.578Z,71.00
2018-03-02T21:37:53.044Z,65.93
2018-03-02T21:40:20.251Z,81.13
2018-03-02T21:42:46.903Z,70.63
2018-03-02T21:45:13.366Z,74.97
2018-03-02T21:47:39.787Z,76.30
2018-03-02T21:50:06.312Z,71.60
2018-03-02T21:52:32.939Z,71.53
2018-03-02T21:54:59.398Z,70.57
2018-03-02T21:57:25.929Z,61.00
2018-03-02T21:59:52.384Z,68.70
2018-03-02T22:02:19.718Z,78.77
2018-03-02T22:04:46.894Z,71.10
2018-03-02T22:07:13.349Z,82.53
2018-03-02T22:09:39.918Z,78.00
2018-03-02T22:12:06.474Z,67.90
2018-03-02T22:14:32.891Z,73.83
2018-03-02T22:16:59.474Z,76.90
2018-03-02T22:19:26.799Z,73.50
2018-03-02T22:21:53.943Z,87.27
2018-03-02T22:24:20.405Z,84.10
2018-03-02T22:26:47.527Z,75.13
2018-03-02T22:29:13.965Z,82.10
2018-03-02T22:31:40.600Z,79.30
2018-03-02T22:34:07.094Z,75.23
2018-03-02T22:36:33.488Z,84.60
2018-03-02T22:39:00.009Z,77.93
2018-03-02T22:41:33.627Z,83.73
2018-03-02T22:44:00.115Z,85.10
2018-03-02T22:46:26.786Z,78.20
2018-03-02T22:48:53.405Z,75.70
2018-03-02T22:51:20.135Z,84.87
2018-03-02T22:53:46.569Z,93.73
2018-03-02T22:56:13.017Z,95.43
2018-03-02T22:58:39.521Z,96.10
2018-03-02T23:01:05.923Z,86.50
2018-03-02T23:03:32.417Z,87.30
2018-03-02T23:05:58.843Z,87.20
2018-03-02T23:08:26.056Z,77.33
2018-03-02T23:10:52.540Z,85.33
2018-03-02T23:13:19.275Z,90.03
2018-03-02T23:15:45.710Z,83.60
2018-03-02T23:18:12.102Z,88.60
2018-03-02T23:20:38.521Z,101.53
2018-03-02T23:23:04.902Z,90.37
2018-03-02T23:25:31.370Z,99.23
2018-03-02T23:27:57.792Z,82.87
2018-03-02T23:30:24.166Z,87.90
2018-03-02T23:32:50.639Z,84.47
2018-03-02T23:35:17.159Z,85.70
2018-03-02T23:37:44.371Z,88.20
2018-03-02T23:40:10.831Z,91.63
2018-03-02T23:42:37.279Z,91.97
2018-03-02T23:45:03.669Z,86.77
2018-03-02T23:47:30.080Z,85.10
2018-03-02T23:49:56.894Z,86.43
2018-03-02T23:52:23.284Z,88.10
2018-03-02T23:54:49.671Z,74.53
2018-03-02T23:57:16.895Z,81.60
2018-03-02T23:59:44.071Z,83.20
